createdAt,value
2023-04-13T00:00:48.689Z,99049.22
2023-04-13T00:03:18.465Z,99013.59
2023-04-13T00:06:05.175Z,99023.25
2023-04-13T00:08:41.461Z,99032.63
2023-04-13T00:11:14.541Z,98997.88
2023-04-13T00:16:39.064Z,99067.50
2023-04-13T00:24:38.948Z,99023.75
2023-04-13T00:32:43.404Z,99040.19
2023-04-13T00:38:01.431Z,99042.09
2023-04-13T00:40:40.185Z,99012.88
2023-04-13T00:45:54.812Z,99039.09
2023-04-13T00:51:10.708Z,99029.28
2023-04-13T00:53:44.604Z,99032.75
2023-04-13T00:56:16.281Z,99030.66
2023-04-13T00:58:49.710Z,98985.13
2023-04-13T01:01:21.732Z,98986.06
2023-04-13T01:03:54.398Z,99035.13
2023-04-13T01:06:43.179Z,99036.81
2023-04-13T01:09:28.428Z,99044.78
2023-04-13T01:12:04.403Z,98996.66
2023-04-13T01:21:15.361Z,99053.31
2023-04-13T01:27:18.170Z,99024.88
2023-04-13T01:32:39.403Z,99057.94
2023-04-13T01:35:13.948Z,99062.34
2023-04-13T01:38:01.383Z,99055.00
2023-04-13T01:40:52.957Z,99067.06
2023-04-13T01:43:31.994Z,99059.47
2023-04-13T01:52:27.227Z,99018.16
2023-04-13T01:57:49.644Z,98960.88
2023-04-13T02:00:25.315Z,99016.16
2023-04-13T02:08:35.107Z,99034.75
2023-04-13T02:11:07.117Z,99021.28
2023-04-13T02:19:25.880Z,99018.28
2023-04-13T02:24:52.450Z,99037.03
2023-04-13T02:38:56.253Z,99068.44
2023-04-13T02:41:28.925Z,99018.00
2023-04-13T02:50:07.405Z,99080.22
2023-04-13T02:52:37.930Z,99081.75
2023-04-13T02:55:08.312Z,99067.78
2023-04-13T02:57:39.095Z,99082.06
2023-04-13T03:00:29.858Z,99077.25
2023-04-13T03:03:08.986Z,99075.41
2023-04-13T03:05:43.900Z,99077.81
2023-04-13T03:08:17.967Z,99065.66
2023-04-13T03:13:34.520Z,99061.88
2023-04-13T03:18:44.286Z,99065.03
2023-04-13T03:21:28.099Z,99053.41
2023-04-13T03:23:59.206Z,98994.53
2023-04-13T03:32:07.185Z,99038.31
2023-04-13T03:34:48.650Z,99052.06
2023-04-13T03:37:18.754Z,99053.09
2023-04-13T03:39:49.428Z,99043.44
2023-04-13T03:42:16.229Z,99053.47
2023-04-13T03:44:46.058Z,99051.75
2023-04-13T03:47:18.608Z,99051.75
2023-04-13T03:49:48.664Z,99058.88
2023-04-13T03:52:16.788Z,99054.84
2023-04-13T03:54:48.082Z,99003.75
2023-04-13T03:57:33.390Z,99018.28
2023-04-13T04:00:04.190Z,99044.47
2023-04-13T04:02:34.453Z,99054.56
2023-04-13T04:05:06.946Z,99051.09
2023-04-13T04:07:36.793Z,99034.63
2023-04-13T04:13:08.519Z,99039.25
2023-04-13T04:18:27.730Z,99020.09
2023-04-13T04:29:24.481Z,98959.03
2023-04-13T04:32:02.635Z,98993.94
2023-04-13T04:34:49.761Z,99005.59
2023-04-13T04:46:15.836Z,98941.06
2023-04-13T05:00:47.416Z,99084.50
2023-04-13T05:34:49.226Z,99049.63
2023-04-13T05:37:29.774Z,99054.38
2023-04-13T05:52:01.057Z,99011.06
2023-04-13T05:54:57.582Z,99076.47
2023-04-13T06:00:37.926Z,99025.81
2023-04-13T06:06:19.160Z,99129.41
2023-04-13T06:08:53.047Z,99114.09
2023-04-13T06:11:27.333Z,99024.56
2023-04-13T06:16:46.766Z,99107.66
2023-04-13T06:19:49.652Z,99148.44
2023-04-13T06:22:49.218Z,99136.66
2023-04-13T06:25:43.134Z,99099.91
2023-04-13T06:28:17.825Z,99072.19
2023-04-13T06:31:15.814Z,99121.69
2023-04-13T06:36:37.838Z,99175.88
2023-04-13T06:39:28.770Z,99137.47
2023-04-13T07:03:26.733Z,99185.50
2023-04-13T07:08:41.721Z,99192.25
2023-04-13T07:14:00.353Z,99165.19
2023-04-13T07:19:52.323Z,99193.00
2023-04-13T07:22:30.493Z,99116.41
2023-04-13T07:25:05.040Z,99195.97
2023-04-13T07:30:53.907Z,99228.81
2023-04-13T07:33:25.860Z,99187.06
2023-04-13T07:36:01.279Z,99226.75
2023-04-13T07:38:37.461Z,99240.56
2023-04-13T07:52:42.340Z,99207.03
2023-04-13T07:55:18.546Z,99247.78
2023-04-13T07:57:57.354Z,99233.41
2023-04-13T08:03:50.173Z,99252.22
2023-04-13T08:09:15.648Z,99241.00
2023-04-13T08:11:43.049Z,99250.78
2023-04-13T08:14:12.213Z,99266.38
2023-04-13T08:16:39.161Z,99267.91
2023-04-13T08:19:11.427Z,99243.75
2023-04-13T08:21:42.117Z,99272.63
2023-04-13T08:24:10.339Z,99284.16
2023-04-13T08:26:40.862Z,99275.78
2023-04-13T08:32:07.195Z,99266.44
2023-04-13T08:34:50.562Z,99288.13
2023-04-13T08:37:19.436Z,99267.13
2023-04-13T08:39:56.507Z,99276.31
2023-04-13T08:50:50.447Z,99271.69
2023-04-13T08:53:21.459Z,99259.38
2023-04-13T08:55:53.351Z,99297.50
2023-04-13T08:58:35.934Z,99246.69
2023-04-13T09:01:13.182Z,99248.09
2023-04-13T09:09:46.194Z,99296.81
2023-04-13T09:12:22.072Z,99304.84
2023-04-13T09:17:50.662Z,99269.81
2023-04-13T09:20:23.110Z,99298.28
2023-04-13T09:23:06.297Z,99277.50
2023-04-13T09:25:42.952Z,99278.25
2023-04-13T09:28:21.059Z,99288.25
2023-04-13T09:30:52.017Z,99226.41
2023-04-13T09:33:20.174Z,99320.13
2023-04-13T09:35:47.485Z,99261.38
2023-04-13T09:38:37.444Z,99306.72
2023-04-13T09:41:13.245Z,99286.75
2023-04-13T09:43:46.193Z,99314.16
2023-04-13T09:46:22.170Z,99312.44
2023-04-13T09:49:12.006Z,99332.47
2023-04-13T09:51:40.586Z,99323.59
2023-04-13T09:54:20.910Z,99333.06
2023-04-13T09:56:54.893Z,99313.50
2023-04-13T09:59:30.815Z,99324.19
2023-04-13T10:02:08.176Z,99284.22
2023-04-13T10:04:36.626Z,99329.19
2023-04-13T10:09:51.348Z,99323.44
2023-04-13T10:12:33.473Z,99331.53
2023-04-13T10:15:52.714Z,99321.13
2023-04-13T10:18:56.071Z,99305.84
2023-04-13T10:21:31.167Z,99319.84
2023-04-13T10:24:00.452Z,99311.50
2023-04-13T10:26:32.082Z,99305.00
2023-04-13T10:29:31.339Z,99336.59
2023-04-13T10:35:14.566Z,99282.91
2023-04-13T10:40:59.962Z,99316.91
2023-04-13T10:43:38.003Z,99316.38
2023-04-13T10:46:10.281Z,99320.63
2023-04-13T10:48:37.519Z,99282.59
2023-04-13T10:51:08.112Z,99315.44
2023-04-13T10:53:56.605Z,99315.13
2023-04-13T10:56:24.994Z,99280.72
2023-04-13T10:59:02.757Z,99276.00
2023-04-13T11:01:41.925Z,99323.72
2023-04-13T11:04:16.190Z,99268.59
2023-04-13T11:07:33.653Z,99297.47
2023-04-13T11:10:04.141Z,99276.06
2023-04-13T11:12:33.157Z,99305.97
2023-04-13T11:15:12.834Z,99299.94
2023-04-13T11:17:48.646Z,99315.13
2023-04-13T11:29:05.695Z,99324.81
2023-04-13T11:31:42.165Z,99319.44
2023-04-13T11:34:18.265Z,99323.06
2023-04-13T11:36:49.177Z,99311.22
2023-04-13T11:39:16.729Z,99309.25
2023-04-13T11:41:50.025Z,99283.59
2023-04-13T11:44:20.636Z,99289.88
2023-04-13T11:46:55.801Z,99310.25
2023-04-13T11:49:24.320Z,99263.16
2023-04-13T11:51:59.305Z,99324.69
2023-04-13T11:54:31.067Z,99326.16
2023-04-13T11:57:02.206Z,99334.94
2023-04-13T11:59:29.857Z,99327.78
2023-04-13T12:02:03.206Z,99310.19
2023-04-13T12:13:33.015Z,99288.75
2023-04-13T12:19:32.939Z,99298.34
2023-04-13T12:25:36.487Z,99240.53
2023-04-13T12:28:09.438Z,99251.78
2023-04-13T12:36:19.966Z,99236.25
2023-04-13T12:39:00.283Z,99250.75
2023-04-13T12:41:29.212Z,99294.16
2023-04-13T12:43:56.811Z,99284.59
2023-04-13T12:46:32.902Z,99305.00
2023-04-13T12:49:05.632Z,99295.13
2023-04-13T12:54:14.044Z,99303.28
2023-04-13T12:56:49.158Z,99301.81
2023-04-13T13:02:01.573Z,99236.31
2023-04-13T13:04:35.216Z,99289.78
2023-04-13T13:07:17.408Z,99323.59
2023-04-13T13:09:47.185Z,99332.19
2023-04-13T13:12:46.722Z,99293.22
2023-04-13T13:15:29.319Z,99325.25
2023-04-13T13:23:50.845Z,99372.34
2023-04-13T13:26:24.457Z,99353.91
2023-04-13T13:29:00.992Z,99324.28
2023-04-13T13:31:31.075Z,99357.84
2023-04-13T13:42:18.732Z,99356.13
2023-04-13T13:44:52.121Z,99387.53
2023-04-13T13:47:23.644Z,99390.81
2023-04-13T13:50:03.422Z,99399.75
2023-04-13T13:55:22.802Z,99368.06
2023-04-13T13:58:00.578Z,99386.44
2023-04-13T14:03:20.259Z,99357.00
2023-04-13T14:05:53.578Z,99389.50
2023-04-13T14:08:23.186Z,99382.19
2023-04-13T14:10:51.155Z,99344.19
2023-04-13T14:13:25.668Z,99284.09
2023-04-13T14:16:01.249Z,99375.44
2023-04-13T14:18:52.529Z,99328.13
2023-04-13T14:24:16.118Z,99296.63
2023-04-13T14:29:33.956Z,99339.66
2023-04-13T14:32:34.133Z,99384.44
2023-04-13T14:35:37.597Z,99297.63
2023-04-13T14:38:24.014Z,99312.53
2023-04-13T14:41:01.535Z,99391.13
2023-04-13T14:49:51.615Z,99286.31
2023-04-13T14:55:41.041Z,99297.88
2023-04-13T15:14:03.415Z,99378.16
2023-04-13T15:22:08.856Z,99413.97
2023-04-13T15:24:55.640Z,99416.34
2023-04-13T15:40:29.312Z,99420.00
2023-04-13T15:43:10.777Z,99357.16
2023-04-13T15:46:11.038Z,99433.03
2023-04-13T15:51:23.444Z,99410.75
2023-04-13T15:56:42.313Z,99428.16
2023-04-13T15:59:12.608Z,99437.41
2023-04-13T16:01:58.041Z,99405.09
2023-04-13T16:04:34.760Z,99456.50
2023-04-13T16:07:12.816Z,99449.97
2023-04-13T16:09:46.284Z,99463.25
2023-04-13T16:12:16.825Z,99458.69
2023-04-13T16:14:47.405Z,99456.44
2023-04-13T16:20:18.367Z,99446.81
2023-04-13T16:22:49.573Z,99495.25
2023-04-13T16:25:21.393Z,99468.66
2023-04-13T16:27:49.735Z,99470.91
2023-04-13T16:30:18.302Z,99456.69
2023-04-13T16:32:46.601Z,99488.75
2023-04-13T16:35:14.457Z,99476.91
2023-04-13T16:37:42.945Z,99499.72
2023-04-13T16:40:13.064Z,99503.97
2023-04-13T16:42:41.090Z,99485.94
2023-04-13T16:45:14.899Z,99501.50
2023-04-13T16:47:45.109Z,99500.75
2023-04-13T16:50:12.780Z,99456.78
2023-04-13T16:52:40.228Z,99459.16
2023-04-13T16:55:09.174Z,99505.13
2023-04-13T16:57:38.739Z,99498.03
2023-04-13T17:00:10.180Z,99503.13
2023-04-13T17:02:38.859Z,99482.00
2023-04-13T17:05:11.961Z,99481.75
2023-04-13T17:07:42.608Z,99491.28
2023-04-13T17:10:12.533Z,99505.34
2023-04-13T17:12:42.365Z,99487.63
2023-04-13T17:15:11.009Z,99460.59
2023-04-13T17:17:39.104Z,99512.66
2023-04-13T17:20:08.628Z,99510.63
2023-04-13T17:22:35.836Z,99480.09
2023-04-13T17:25:03.031Z,99445.72
2023-04-13T17:27:35.438Z,99510.91
2023-04-13T17:30:03.977Z,99536.31
2023-04-13T17:32:31.758Z,99449.16
2023-04-13T17:35:00.206Z,99457.22
2023-04-13T17:37:29.591Z,99547.22
2023-04-13T17:40:00.158Z,99542.47
2023-04-13T17:42:31.198Z,99481.66
2023-04-13T17:45:00.417Z,99556.75
2023-04-13T17:47:39.954Z,99531.09
2023-04-13T17:50:10.400Z,99453.22
2023-04-13T17:52:37.183Z,99532.34
2023-04-13T17:55:04.509Z,99506.75
2023-04-13T17:57:41.812Z,99531.56
2023-04-13T18:00:09.486Z,99535.56
2023-04-13T18:02:37.053Z,99536.34
2023-04-13T18:05:15.552Z,99543.94
2023-04-13T18:07:46.270Z,99538.03
2023-04-13T18:10:13.209Z,99549.06
2023-04-13T18:12:41.178Z,99558.94
2023-04-13T18:15:08.889Z,99555.75
2023-04-13T18:17:37.681Z,99558.72
2023-04-13T18:20:06.172Z,99534.94
2023-04-13T18:22:34.297Z,99525.84
2023-04-13T18:25:02.038Z,99534.03
2023-04-13T18:27:29.170Z,99552.84
2023-04-13T18:32:39.922Z,99523.41
2023-04-13T18:35:06.888Z,99541.72
2023-04-13T18:37:33.879Z,99537.28
2023-04-13T18:40:03.691Z,99541.91
2023-04-13T18:42:34.132Z,99594.34
2023-04-13T18:45:01.027Z,99566.63
2023-04-13T18:47:27.963Z,99594.78
2023-04-13T18:49:56.293Z,99573.53
2023-04-13T18:52:25.821Z,99615.13
2023-04-13T18:54:53.100Z,99620.19
2023-04-13T18:57:20.035Z,99595.66
2023-04-13T18:59:46.829Z,99555.69
2023-04-13T19:02:17.109Z,99608.69
2023-04-13T19:04:46.042Z,99629.47
2023-04-13T19:07:13.102Z,99621.81
2023-04-13T19:09:41.149Z,99624.28
2023-04-13T19:12:11.872Z,99539.91
2023-04-13T19:14:52.870Z,99606.72
2023-04-13T19:17:30.172Z,99636.69
2023-04-13T19:19:59.179Z,99635.84
2023-04-13T19:22:27.245Z,99611.69
2023-04-13T19:24:55.757Z,99535.63
2023-04-13T19:30:47.084Z,99588.41
2023-04-13T19:36:31.961Z,99586.84
2023-04-13T19:41:50.238Z,99634.97
2023-04-13T19:50:14.168Z,99604.50
2023-04-13T19:55:33.634Z,99636.84
2023-04-13T20:00:49.961Z,99569.16
2023-04-13T20:45:44.169Z,99630.59
2023-04-13T20:51:02.371Z,99566.66
2023-04-13T20:53:40.854Z,99609.66
2023-04-13T20:56:12.967Z,99647.34
2023-04-13T20:58:45.175Z,99613.09
2023-04-13T21:01:15.625Z,99586.47
2023-04-13T21:03:58.172Z,99647.97
2023-04-13T21:24:42.990Z,99550.84
2023-04-13T21:27:33.862Z,99573.94
2023-04-13T21:30:12.669Z,99642.53
2023-04-13T21:32:47.821Z,99589.88
2023-04-13T21:35:27.461Z,99597.19
2023-04-13T21:40:59.122Z,99534.44
2023-04-13T21:43:26.217Z,99621.13
2023-04-13T21:45:55.158Z,99649.50
2023-04-13T21:48:25.173Z,99646.03
2023-04-13T21:50:52.956Z,99594.09
2023-04-13T21:53:20.494Z,99618.78
2023-04-13T21:55:47.473Z,99635.94
2023-04-13T21:58:14.309Z,99640.75
2023-04-13T22:00:44.407Z,99656.34
2023-04-13T22:03:16.879Z,99654.44
2023-04-13T22:05:44.965Z,99650.66
2023-04-13T22:08:18.329Z,99646.22
2023-04-13T22:10:45.870Z,99590.72
2023-04-13T22:13:20.744Z,99616.34
2023-04-13T22:15:47.643Z,99642.75
2023-04-13T22:18:17.480Z,99593.25
2023-04-13T22:20:45.197Z,99618.81
2023-04-13T22:23:17.927Z,99574.41
2023-04-13T22:26:08.419Z,99592.25
2023-04-13T22:28:36.624Z,99634.00
2023-04-13T22:31:09.074Z,99599.50
2023-04-13T22:33:37.490Z,99553.38
2023-04-13T22:36:05.866Z,99574.53
2023-04-13T22:38:32.724Z,99646.53
2023-04-13T22:41:00.222Z,99648.31
2023-04-13T22:43:30.613Z,99659.00
2023-04-13T22:46:03.517Z,99655.69
2023-04-13T22:48:32.633Z,99662.13
2023-04-13T22:51:06.474Z,99609.00
2023-04-13T22:53:33.711Z,99619.66
2023-04-13T22:56:00.910Z,99641.38
2023-04-13T22:58:30.586Z,99675.97
2023-04-13T23:00:57.437Z,99625.81
2023-04-13T23:03:25.453Z,99686.78
2023-04-13T23:05:52.423Z,99685.19
2023-04-13T23:08:21.938Z,99691.56
2023-04-13T23:10:49.713Z,99683.84
2023-04-13T23:13:19.471Z,99692.00
2023-04-13T23:15:46.924Z,99633.88
2023-04-13T23:18:16.269Z,99666.47
2023-04-13T23:20:43.226Z,99696.28
2023-04-13T23:23:11.182Z,99703.09
2023-04-13T23:25:38.779Z,99680.78
2023-04-13T23:28:07.061Z,99629.38
2023-04-13T23:30:35.647Z,99639.75
2023-04-13T23:33:03.505Z,99650.91
2023-04-13T23:35:31.587Z,99694.06
2023-04-13T23:38:00.306Z,99684.81
2023-04-13T23:40:27.906Z,99683.09
2023-04-13T23:42:57.319Z,99698.41
2023-04-13T23:45:27.457Z,99661.25
2023-04-13T23:47:54.846Z,99678.03
2023-04-13T23:50:21.735Z,99694.28
2023-04-13T23:52:49.221Z,99693.50
2023-04-13T23:55:17.695Z,99655.00
2023-04-13T23:57:48.100Z,99689.88
